Terminal Aerodrome Forecast
Issued by NWS

Home | Current Version | Previous Version | Text Only | Print | Product List | Glossary On
Versions: 1 2 3 4 5 6 7 8 9 10 11 12 13 14 15 16 17 18 19 20 21
000
FTUS41 KPBZ 310500
TAFLBE
TAF
KLBE 310530Z 3106/0106 26008KT P6SM BKN035
     FM310700 28005KT P6SM SCT035
     FM311800 24009KT P6SM BKN025
     FM312300 23006KT P6SM SCT025 BKN250=

USA.gov is the U.S. government's official web portal to all federal, state and local government web resources and services.